NKS2840 KIAH-KFLL
Flight info
| Callsign | NKS2840 |
|---|---|
| Flight time | 1h 50m |
| Altitude | 35000 |
| Route | GUMBY3 LLA LEV Y290 OCHHO VNECK TEEKY4 |
| Aircraft | A321/M-SDE3FGHIRWY/LB1 |
Departure
| Time | 2026-05-03 20:26 |
|---|---|
| Airport | George Bush Intercontinental Airport (KIAH) |
Arrival
| Time | 2026-05-03 22:16 |
|---|---|
| Airport | Fort Lauderdale Hollywood International Airport (KFLL) |
| Time | Latitude | Longitude | Altitude | Speed | Heading |
|---|---|---|---|---|---|
| 2026-05-03 20:15 | 29.98485 | -95.34898 | 126 ft | 0 kts | 305° |
| 2026-05-03 20:17 | 29.98477 | -95.34885 | 100 ft | 4 kts | 302° |
| 2026-05-03 20:17 | 29.98464 | -95.34858 | 100 ft | 4 kts | 292° |
| 2026-05-03 20:17 | 29.98457 | -95.34829 | 98 ft | 4 kts | 268° |
| 2026-05-03 20:17 | 29.98462 | -95.34808 | 97 ft | 3 kts | 190° |
| 2026-05-03 20:18 | 29.98465 | -95.34808 | 97 ft | 0 kts | 179° |
| 2026-05-03 20:22 | 29.98463 | -95.34808 | 97 ft | 1 kts | 179° |
| 2026-05-03 20:22 | 29.98454 | -95.34807 | 101 ft | 3 kts | 180° |
| 2026-05-03 20:22 | 29.98398 | -95.34809 | 101 ft | 10 kts | 185° |
| 2026-05-03 20:22 | 29.98383 | -95.34861 | 101 ft | 9 kts | 267° |
| 2026-05-03 20:23 | 29.98382 | -95.34981 | 99 ft | 17 kts | 270° |
| 2026-05-03 20:23 | 29.98382 | -95.35120 | 99 ft | 18 kts | 270° |
| 2026-05-03 20:23 | 29.98376 | -95.35258 | 103 ft | 17 kts | 258° |
| 2026-05-03 20:23 | 29.98439 | -95.35358 | 101 ft | 17 kts | 330° |
| 2026-05-03 20:24 | 29.98553 | -95.35428 | 100 ft | 19 kts | 332° |
| 2026-05-03 20:24 | 29.98671 | -95.35500 | 102 ft | 20 kts | 332° |
| 2026-05-03 20:24 | 29.98793 | -95.35577 | 102 ft | 20 kts | 331° |
| 2026-05-03 20:24 | 29.98824 | -95.35687 | 101 ft | 15 kts | 243° |
| 2026-05-03 20:25 | 29.98772 | -95.35759 | 104 ft | 10 kts | 195° |
| 2026-05-03 20:25 | 29.98692 | -95.35725 | 104 ft | 23 kts | 152° |
| 2026-05-03 20:25 | 29.98331 | -95.35503 | 101 ft | 93 kts | 152° |
| 2026-05-03 20:25 | 29.97580 | -95.35045 | 99 ft | 149 kts | 152° |
| 2026-05-03 20:26 | 29.96545 | -95.34403 | 237 ft | 178 kts | 151° |
| 2026-05-03 20:26 | 29.95758 | -95.33361 | 855 ft | 178 kts | 107° |
| 2026-05-03 20:26 | 29.95498 | -95.31952 | 1421 ft | 185 kts | 102° |
| 2026-05-03 20:26 | 29.95184 | -95.30421 | 1487 ft | 209 kts | 105° |
| 2026-05-03 20:27 | 29.94784 | -95.28711 | 1670 ft | 232 kts | 106° |
| 2026-05-03 20:27 | 29.94338 | -95.26886 | 2312 ft | 236 kts | 106° |
| 2026-05-03 20:27 | 29.93901 | -95.25050 | 2976 ft | 240 kts | 103° |
| 2026-05-03 20:27 | 29.93761 | -95.23113 | 3514 ft | 253 kts | 91° |
| 2026-05-03 20:28 | 29.93759 | -95.21028 | 3943 ft | 265 kts | 90° |
| 2026-05-03 20:28 | 29.93781 | -95.18901 | 3990 ft | 263 kts | 89° |
| 2026-05-03 20:28 | 29.93812 | -95.16801 | 4002 ft | 263 kts | 89° |
| 2026-05-03 20:28 | 29.93847 | -95.14694 | 3999 ft | 263 kts | 89° |
| 2026-05-03 20:29 | 29.93883 | -95.12587 | 3999 ft | 263 kts | 89° |
| 2026-05-03 20:29 | 29.93917 | -95.10497 | 4175 ft | 266 kts | 89° |
| 2026-05-03 20:29 | 29.93937 | -95.08360 | 4823 ft | 268 kts | 93° |
| 2026-05-03 20:29 | 29.93538 | -95.06269 | 5157 ft | 270 kts | 110° |
| 2026-05-03 20:30 | 29.92903 | -95.04233 | 5996 ft | 269 kts | 108° |
| 2026-05-03 20:30 | 29.92295 | -95.02188 | 6732 ft | 272 kts | 107° |
| 2026-05-03 20:30 | 29.91686 | -95.00105 | 7371 ft | 276 kts | 107° |
| 2026-05-03 20:30 | 29.91068 | -94.97985 | 7958 ft | 282 kts | 107° |
| 2026-05-03 20:31 | 29.90434 | -94.95821 | 8524 ft | 288 kts | 107° |
| 2026-05-03 20:31 | 29.89788 | -94.93612 | 9162 ft | 293 kts | 107° |
| 2026-05-03 20:31 | 29.89132 | -94.91372 | 9801 ft | 298 kts | 107° |
| 2026-05-03 20:31 | 29.88459 | -94.89085 | 10260 ft | 309 kts | 107° |
| 2026-05-03 20:32 | 29.87989 | -94.87492 | 10339 ft | 324 kts | 107° |
| 2026-05-03 20:32 | 29.86974 | -94.84060 | 10531 ft | 350 kts | 107° |
| 2026-05-03 20:32 | 29.86188 | -94.81408 | 10980 ft | 358 kts | 107° |
| 2026-05-03 20:32 | 29.85640 | -94.79569 | 11363 ft | 361 kts | 108° |
| 2026-05-03 20:33 | 29.84818 | -94.76815 | 11945 ft | 365 kts | 108° |
| 2026-05-03 20:33 | 29.83721 | -94.73138 | 12693 ft | 370 kts | 108° |
| 2026-05-03 20:33 | 29.83154 | -94.71233 | 13093 ft | 372 kts | 108° |
| 2026-05-03 20:33 | 29.82315 | -94.68403 | 13663 ft | 376 kts | 108° |
| 2026-05-03 20:34 | 29.81467 | -94.65549 | 14223 ft | 379 kts | 108° |
| 2026-05-03 20:34 | 29.80604 | -94.62659 | 14714 ft | 383 kts | 108° |
| 2026-05-03 20:34 | 29.79731 | -94.59738 | 15210 ft | 388 kts | 108° |
| 2026-05-03 20:34 | 29.78849 | -94.56789 | 15686 ft | 392 kts | 108° |
| 2026-05-03 20:35 | 29.77956 | -94.53808 | 15941 ft | 396 kts | 108° |
| 2026-05-03 20:35 | 29.77054 | -94.50799 | 15997 ft | 396 kts | 108° |
| 2026-05-03 20:35 | 29.76156 | -94.47800 | 16207 ft | 400 kts | 108° |
| 2026-05-03 20:35 | 29.75247 | -94.44768 | 16766 ft | 402 kts | 108° |
| 2026-05-03 20:36 | 29.74326 | -94.41700 | 17214 ft | 408 kts | 108° |
| 2026-05-03 20:36 | 29.73406 | -94.38642 | 17644 ft | 413 kts | 108° |
| 2026-05-03 20:36 | 29.72464 | -94.35461 | 18103 ft | 418 kts | 105° |
| 2026-05-03 20:36 | 29.71849 | -94.32218 | 18516 ft | 421 kts | 95° |
| 2026-05-03 20:37 | 29.71482 | -94.28825 | 18904 ft | 425 kts | 95° |
| 2026-05-03 20:37 | 29.71113 | -94.25439 | 19287 ft | 429 kts | 95° |
| 2026-05-03 20:37 | 29.70737 | -94.22051 | 19676 ft | 433 kts | 95° |
| 2026-05-03 20:37 | 29.70351 | -94.18599 | 20085 ft | 438 kts | 95° |
| 2026-05-03 20:38 | 29.69959 | -94.15120 | 20509 ft | 441 kts | 95° |
| 2026-05-03 20:38 | 29.69560 | -94.11604 | 20908 ft | 445 kts | 95° |
| 2026-05-03 20:38 | 29.69156 | -94.08057 | 21298 ft | 450 kts | 95° |
| 2026-05-03 20:38 | 29.68757 | -94.04470 | 21683 ft | 454 kts | 93° |
| 2026-05-03 20:39 | 29.68640 | -94.00845 | 22044 ft | 456 kts | 87° |
| 2026-05-03 20:39 | 29.68615 | -93.97175 | 22417 ft | 460 kts | 87° |
| 2026-05-03 20:39 | 29.68591 | -93.93477 | 22785 ft | 464 kts | 87° |
| 2026-05-03 20:39 | 29.68564 | -93.89761 | 23144 ft | 468 kts | 87° |
| 2026-05-03 20:40 | 29.68532 | -93.85996 | 23489 ft | 472 kts | 87° |
| 2026-05-03 20:40 | 29.68496 | -93.82215 | 23820 ft | 476 kts | 87° |
| 2026-05-03 20:40 | 29.68456 | -93.78380 | 24128 ft | 479 kts | 87° |
| 2026-05-03 20:40 | 29.68414 | -93.74545 | 24425 ft | 483 kts | 87° |
| 2026-05-03 20:41 | 29.68372 | -93.70665 | 24726 ft | 485 kts | 87° |
| 2026-05-03 20:41 | 29.68333 | -93.66778 | 25034 ft | 488 kts | 87° |
| 2026-05-03 20:41 | 29.68291 | -93.62882 | 25334 ft | 490 kts | 87° |
| 2026-05-03 20:41 | 29.68248 | -93.58931 | 25634 ft | 493 kts | 87° |
| 2026-05-03 20:42 | 29.68205 | -93.54976 | 25929 ft | 496 kts | 87° |
| 2026-05-03 20:42 | 29.68161 | -93.51050 | 26216 ft | 498 kts | 87° |
| 2026-05-03 20:42 | 29.68115 | -93.47010 | 26514 ft | 501 kts | 87° |
| 2026-05-03 20:42 | 29.68068 | -93.43047 | 26797 ft | 503 kts | 87° |
| 2026-05-03 20:43 | 29.68016 | -93.39020 | 27073 ft | 506 kts | 87° |
| 2026-05-03 20:43 | 29.67960 | -93.34963 | 27350 ft | 508 kts | 87° |
| 2026-05-03 20:43 | 29.67904 | -93.30899 | 27628 ft | 511 kts | 87° |
| 2026-05-03 20:43 | 29.67846 | -93.26791 | 27899 ft | 513 kts | 87° |
| 2026-05-03 20:44 | 29.67785 | -93.22668 | 28170 ft | 516 kts | 87° |
| 2026-05-03 20:44 | 29.67726 | -93.18540 | 28438 ft | 518 kts | 87° |
| 2026-05-03 20:44 | 29.67668 | -93.14388 | 28697 ft | 520 kts | 87° |
| 2026-05-03 20:44 | 29.67610 | -93.10238 | 28950 ft | 523 kts | 87° |
| 2026-05-03 20:45 | 29.67549 | -93.06026 | 29190 ft | 525 kts | 87° |
| 2026-05-03 20:45 | 29.67487 | -93.01829 | 29481 ft | 527 kts | 87° |
| 2026-05-03 20:45 | 29.67423 | -92.97610 | 29743 ft | 529 kts | 87° |
| 2026-05-03 20:45 | 29.67356 | -92.93383 | 29998 ft | 531 kts | 87° |
| 2026-05-03 20:46 | 29.67287 | -92.89125 | 30241 ft | 533 kts | 87° |
| 2026-05-03 20:46 | 29.67214 | -92.84855 | 30455 ft | 535 kts | 87° |
| 2026-05-03 20:46 | 29.67139 | -92.80564 | 30689 ft | 537 kts | 87° |
| 2026-05-03 20:46 | 29.67064 | -92.76269 | 31010 ft | 536 kts | 87° |
| 2026-05-03 20:47 | 29.66985 | -92.72032 | 31302 ft | 536 kts | 87° |
| 2026-05-03 20:47 | 29.66905 | -92.67753 | 31597 ft | 536 kts | 87° |
| 2026-05-03 20:47 | 29.66826 | -92.63472 | 31943 ft | 535 kts | 87° |
| 2026-05-03 20:47 | 29.66749 | -92.59213 | 32254 ft | 534 kts | 87° |
| 2026-05-03 20:48 | 29.66671 | -92.54955 | 32562 ft | 533 kts | 87° |
| 2026-05-03 20:48 | 29.66589 | -92.50688 | 32861 ft | 533 kts | 87° |
| 2026-05-03 20:48 | 29.66505 | -92.46410 | 33156 ft | 532 kts | 87° |
| 2026-05-03 20:48 | 29.66419 | -92.42182 | 33435 ft | 532 kts | 87° |
| 2026-05-03 20:49 | 29.66225 | -92.37920 | 33714 ft | 534 kts | 94° |
| 2026-05-03 20:49 | 29.65580 | -92.33705 | 33980 ft | 537 kts | 101° |
| 2026-05-03 20:49 | 29.64711 | -92.29538 | 34231 ft | 537 kts | 101° |
| 2026-05-03 20:49 | 29.63843 | -92.25349 | 34500 ft | 536 kts | 102° |
| 2026-05-03 20:50 | 29.62985 | -92.21195 | 34773 ft | 534 kts | 102° |
| 2026-05-03 20:50 | 29.62125 | -92.17036 | 34905 ft | 534 kts | 102° |
| 2026-05-03 20:50 | 29.61263 | -92.12877 | 35154 ft | 534 kts | 102° |
| 2026-05-03 20:51 | 29.59546 | -92.04591 | 35196 ft | 532 kts | 102° |
| 2026-05-03 20:51 | 29.57840 | -91.96379 | 35198 ft | 531 kts | 102° |
| 2026-05-03 20:52 | 29.56099 | -91.88077 | 35194 ft | 531 kts | 103° |
| 2026-05-03 20:52 | 29.54380 | -91.79895 | 35190 ft | 531 kts | 103° |
| 2026-05-03 20:53 | 29.52642 | -91.71652 | 35170 ft | 531 kts | 103° |
| 2026-05-03 20:53 | 29.50899 | -91.63424 | 35182 ft | 531 kts | 103° |
| 2026-05-03 20:54 | 29.49152 | -91.55175 | 35190 ft | 532 kts | 103° |
| 2026-05-03 20:54 | 29.46517 | -91.42787 | 35208 ft | 533 kts | 104° |
| 2026-05-03 20:55 | 29.44754 | -91.34529 | 35209 ft | 532 kts | 104° |
| 2026-05-03 20:55 | 29.42981 | -91.26272 | 35208 ft | 532 kts | 104° |
| 2026-05-03 20:56 | 29.41208 | -91.18039 | 35205 ft | 532 kts | 104° |
| 2026-05-03 20:56 | 29.39429 | -91.09802 | 35224 ft | 532 kts | 104° |
| 2026-05-03 20:57 | 29.37651 | -91.01621 | 35213 ft | 533 kts | 104° |
| 2026-05-03 20:57 | 29.35860 | -90.93374 | 35204 ft | 532 kts | 104° |
| 2026-05-03 20:58 | 29.34070 | -90.85152 | 35199 ft | 532 kts | 104° |
| 2026-05-03 20:58 | 29.32270 | -90.76919 | 35198 ft | 532 kts | 104° |
| 2026-05-03 20:59 | 29.30467 | -90.68693 | 35199 ft | 532 kts | 105° |
| 2026-05-03 20:59 | 29.28659 | -90.60487 | 35199 ft | 532 kts | 105° |
| 2026-05-03 21:00 | 29.27144 | -90.53605 | 35202 ft | 531 kts | 105° |
| 2026-05-03 21:00 | 29.25040 | -90.44068 | 35205 ft | 531 kts | 105° |
| 2026-05-03 21:01 | 29.23215 | -90.35888 | 35171 ft | 531 kts | 106° |
| 2026-05-03 21:01 | 29.21379 | -90.27682 | 35179 ft | 532 kts | 106° |
| 2026-05-03 21:02 | 29.19552 | -90.19473 | 35186 ft | 532 kts | 106° |
| 2026-05-03 21:02 | 29.17706 | -90.11340 | 35182 ft | 531 kts | 110° |
| 2026-05-03 21:03 | 29.14953 | -90.03496 | 35179 ft | 528 kts | 116° |
| 2026-05-03 21:03 | 29.12061 | -89.95775 | 35182 ft | 528 kts | 117° |
| 2026-05-03 21:04 | 29.09188 | -89.88095 | 35186 ft | 528 kts | 117° |
| 2026-05-03 21:04 | 29.06303 | -89.80396 | 35184 ft | 527 kts | 117° |
| 2026-05-03 21:05 | 29.03403 | -89.72690 | 35182 ft | 527 kts | 117° |
| 2026-05-03 21:05 | 29.00506 | -89.65003 | 35182 ft | 527 kts | 117° |
| 2026-05-03 21:06 | 28.97597 | -89.57298 | 35177 ft | 527 kts | 117° |
| 2026-05-03 21:06 | 28.94688 | -89.49611 | 35135 ft | 527 kts | 117° |
| 2026-05-03 21:07 | 28.91781 | -89.41939 | 35146 ft | 528 kts | 117° |
| 2026-05-03 21:07 | 28.88847 | -89.34229 | 35153 ft | 529 kts | 117° |
| 2026-05-03 21:08 | 28.85912 | -89.26522 | 35164 ft | 529 kts | 117° |
| 2026-05-03 21:08 | 28.82974 | -89.18825 | 35173 ft | 530 kts | 118° |
| 2026-05-03 21:09 | 28.80047 | -89.11161 | 35176 ft | 530 kts | 118° |
| 2026-05-03 21:09 | 28.77077 | -89.03412 | 35178 ft | 530 kts | 118° |
| 2026-05-03 21:10 | 28.74145 | -88.95769 | 35173 ft | 530 kts | 118° |
| 2026-05-03 21:10 | 28.71191 | -88.88093 | 35174 ft | 530 kts | 118° |
| 2026-05-03 21:11 | 28.69183 | -88.82875 | 35169 ft | 530 kts | 119° |
| 2026-05-03 21:11 | 28.67562 | -88.78666 | 35173 ft | 530 kts | 119° |
| 2026-05-03 21:12 | 28.64593 | -88.70979 | 35132 ft | 530 kts | 119° |
| 2026-05-03 21:12 | 28.61636 | -88.63326 | 35147 ft | 530 kts | 119° |
| 2026-05-03 21:13 | 28.58688 | -88.55743 | 35147 ft | 530 kts | 119° |
| 2026-05-03 21:13 | 28.56976 | -88.51429 | 35198 ft | 522 kts | 123° |
| 2026-05-03 21:14 | 28.54080 | -88.44582 | 35129 ft | 526 kts | 120° |
| 2026-05-03 21:14 | 28.52185 | -88.39523 | 35126 ft | 527 kts | 118° |
| 2026-05-03 21:15 | 28.51935 | -88.38832 | 35129 ft | 527 kts | 119° |
| 2026-05-03 21:15 | 28.51663 | -88.38061 | 35094 ft | 526 kts | 118° |
| 2026-05-03 21:16 | 28.50529 | -88.34606 | 34882 ft | 527 kts | 116° |
| 2026-05-03 21:16 | 28.49166 | -88.30759 | 35082 ft | 524 kts | 119° |
| 2026-05-03 21:16 | 28.46151 | -88.23185 | 35159 ft | 526 kts | 121° |
| 2026-05-03 21:17 | 28.43554 | -88.16930 | 35162 ft | 527 kts | 121° |
| 2026-05-03 21:17 | 28.40043 | -88.08196 | 35115 ft | 528 kts | 120° |
| 2026-05-03 21:18 | 28.37374 | -88.00545 | 35158 ft | 535 kts | 113° |
| 2026-05-03 21:18 | 28.35128 | -87.92577 | 35120 ft | 534 kts | 114° |
| 2026-05-03 21:19 | 28.32817 | -87.84585 | 35137 ft | 534 kts | 114° |
| 2026-05-03 21:19 | 28.30489 | -87.76617 | 35145 ft | 535 kts | 114° |
| 2026-05-03 21:20 | 28.28152 | -87.68590 | 35155 ft | 535 kts | 114° |
| 2026-05-03 21:20 | 28.25823 | -87.60551 | 35163 ft | 535 kts | 114° |
| 2026-05-03 21:21 | 28.23485 | -87.52545 | 35163 ft | 536 kts | 114° |
| 2026-05-03 21:21 | 28.21106 | -87.44432 | 35145 ft | 547 kts | 114° |
| 2026-05-03 21:22 | 28.19101 | -87.37592 | 35141 ft | 552 kts | 114° |
| 2026-05-03 21:22 | 28.16683 | -87.29323 | 35139 ft | 553 kts | 115° |
| 2026-05-03 21:23 | 28.14267 | -87.21062 | 35136 ft | 549 kts | 115° |
| 2026-05-03 21:23 | 28.11853 | -87.12880 | 35139 ft | 548 kts | 115° |
| 2026-05-03 21:24 | 28.09435 | -87.04731 | 35143 ft | 548 kts | 115° |
| 2026-05-03 21:24 | 28.07022 | -86.96599 | 35131 ft | 541 kts | 115° |
| 2026-05-03 21:25 | 28.04601 | -86.88450 | 35137 ft | 549 kts | 115° |
| 2026-05-03 21:25 | 28.02150 | -86.80242 | 35127 ft | 551 kts | 116° |
| 2026-05-03 21:26 | 27.99695 | -86.72009 | 35132 ft | 552 kts | 115° |
| 2026-05-03 21:26 | 27.97323 | -86.63769 | 35128 ft | 553 kts | 115° |
| 2026-05-03 21:27 | 27.94979 | -86.55544 | 35115 ft | 553 kts | 115° |
| 2026-05-03 21:27 | 27.92578 | -86.47258 | 35136 ft | 553 kts | 115° |
| 2026-05-03 21:28 | 27.90170 | -86.39028 | 35145 ft | 553 kts | 115° |
| 2026-05-03 21:28 | 27.87760 | -86.30791 | 35149 ft | 553 kts | 115° |
| 2026-05-03 21:29 | 27.85337 | -86.22509 | 35149 ft | 553 kts | 115° |
| 2026-05-03 21:29 | 27.82915 | -86.14262 | 35139 ft | 553 kts | 116° |
| 2026-05-03 21:30 | 27.80486 | -86.06016 | 35151 ft | 553 kts | 116° |
| 2026-05-03 21:30 | 27.78058 | -85.97784 | 35151 ft | 553 kts | 116° |
| 2026-05-03 21:31 | 27.75643 | -85.89598 | 35150 ft | 553 kts | 116° |
| 2026-05-03 21:31 | 27.73205 | -85.81366 | 35148 ft | 553 kts | 116° |
| 2026-05-03 21:32 | 27.70754 | -85.73144 | 35144 ft | 553 kts | 116° |
| 2026-05-03 21:32 | 27.68313 | -85.64935 | 35142 ft | 552 kts | 116° |
| 2026-05-03 21:33 | 27.65866 | -85.56709 | 35141 ft | 552 kts | 116° |
| 2026-05-03 21:33 | 27.63414 | -85.48504 | 35136 ft | 552 kts | 116° |
| 2026-05-03 21:34 | 27.60935 | -85.40274 | 35128 ft | 552 kts | 116° |
| 2026-05-03 21:34 | 27.58730 | -85.31953 | 35124 ft | 561 kts | 107° |
| 2026-05-03 21:35 | 27.57252 | -85.23305 | 35124 ft | 562 kts | 107° |
| 2026-05-03 21:35 | 27.55762 | -85.14716 | 35127 ft | 562 kts | 108° |
| 2026-05-03 21:36 | 27.54243 | -85.06067 | 35126 ft | 562 kts | 108° |
| 2026-05-03 21:36 | 27.52723 | -84.97432 | 35123 ft | 563 kts | 108° |
| 2026-05-03 21:37 | 27.51197 | -84.88771 | 35125 ft | 563 kts | 108° |
| 2026-05-03 21:37 | 27.49669 | -84.80117 | 35122 ft | 563 kts | 108° |
| 2026-05-03 21:38 | 27.48130 | -84.71473 | 35121 ft | 563 kts | 108° |
| 2026-05-03 21:38 | 27.46584 | -84.62838 | 35098 ft | 563 kts | 108° |
| 2026-05-03 21:39 | 27.45041 | -84.54185 | 35112 ft | 563 kts | 108° |
| 2026-05-03 21:39 | 27.43496 | -84.45551 | 35122 ft | 563 kts | 108° |
| 2026-05-03 21:40 | 27.42181 | -84.36890 | 35118 ft | 570 kts | 98° |
| 2026-05-03 21:40 | 27.41928 | -84.27958 | 35107 ft | 572 kts | 96° |
| 2026-05-03 21:41 | 27.41689 | -84.19012 | 35110 ft | 572 kts | 97° |
| 2026-05-03 21:41 | 27.41437 | -84.10048 | 35110 ft | 572 kts | 97° |
| 2026-05-03 21:42 | 27.41183 | -84.01107 | 35108 ft | 572 kts | 97° |
| 2026-05-03 21:42 | 27.40927 | -83.92167 | 35108 ft | 572 kts | 97° |
| 2026-05-03 21:43 | 27.40660 | -83.83226 | 35108 ft | 571 kts | 97° |
| 2026-05-03 21:43 | 27.40380 | -83.74272 | 35104 ft | 571 kts | 97° |
| 2026-05-03 21:44 | 27.40097 | -83.65389 | 35108 ft | 571 kts | 97° |
| 2026-05-03 21:44 | 27.39808 | -83.56449 | 35092 ft | 571 kts | 97° |
| 2026-05-03 21:45 | 27.39522 | -83.47459 | 35089 ft | 571 kts | 97° |
| 2026-05-03 21:45 | 27.39230 | -83.38570 | 35090 ft | 572 kts | 97° |
| 2026-05-03 21:46 | 27.38923 | -83.29635 | 35086 ft | 572 kts | 97° |
| 2026-05-03 21:46 | 27.38610 | -83.20728 | 35092 ft | 572 kts | 97° |
| 2026-05-03 21:47 | 27.37853 | -83.11883 | 35068 ft | 561 kts | 110° |
| 2026-05-03 21:47 | 27.35717 | -83.03521 | 35079 ft | 555 kts | 114° |
| 2026-05-03 21:48 | 27.33489 | -82.95184 | 35080 ft | 555 kts | 114° |
| 2026-05-03 21:48 | 27.32394 | -82.91072 | 34687 ft | 556 kts | 114° |
| 2026-05-03 21:48 | 27.31297 | -82.86943 | 34373 ft | 553 kts | 114° |
| 2026-05-03 21:49 | 27.30189 | -82.82791 | 33675 ft | 555 kts | 114° |
| 2026-05-03 21:49 | 27.29031 | -82.78678 | 33085 ft | 545 kts | 118° |
| 2026-05-03 21:49 | 27.27486 | -82.74857 | 32637 ft | 533 kts | 124° |
| 2026-05-03 21:49 | 27.25821 | -82.71103 | 32394 ft | 533 kts | 124° |
| 2026-05-03 21:50 | 27.24182 | -82.67393 | 32144 ft | 530 kts | 124° |
| 2026-05-03 21:50 | 27.22543 | -82.63681 | 31899 ft | 527 kts | 123° |
| 2026-05-03 21:50 | 27.20922 | -82.60003 | 31652 ft | 525 kts | 123° |
| 2026-05-03 21:50 | 27.19312 | -82.56351 | 31410 ft | 521 kts | 123° |
| 2026-05-03 21:51 | 27.17721 | -82.52743 | 31173 ft | 518 kts | 123° |
| 2026-05-03 21:51 | 27.16119 | -82.49114 | 30921 ft | 516 kts | 123° |
| 2026-05-03 21:51 | 27.14523 | -82.45510 | 30695 ft | 520 kts | 123° |
| 2026-05-03 21:51 | 27.12900 | -82.41859 | 30455 ft | 522 kts | 122° |
| 2026-05-03 21:52 | 27.11282 | -82.38218 | 30222 ft | 520 kts | 122° |
| 2026-05-03 21:52 | 27.09677 | -82.34596 | 29971 ft | 516 kts | 122° |
| 2026-05-03 21:52 | 27.08085 | -82.31006 | 29699 ft | 513 kts | 122° |
| 2026-05-03 21:52 | 27.06489 | -82.27421 | 29425 ft | 511 kts | 122° |
| 2026-05-03 21:53 | 27.04897 | -82.23857 | 29158 ft | 508 kts | 122° |
| 2026-05-03 21:53 | 27.03321 | -82.20332 | 28894 ft | 506 kts | 122° |
| 2026-05-03 21:53 | 27.01746 | -82.16806 | 28644 ft | 504 kts | 122° |
| 2026-05-03 21:53 | 27.00192 | -82.13325 | 28389 ft | 503 kts | 122° |
| 2026-05-03 21:54 | 26.98633 | -82.09831 | 28133 ft | 501 kts | 122° |
| 2026-05-03 21:54 | 26.97035 | -82.06351 | 27879 ft | 496 kts | 127° |
| 2026-05-03 21:54 | 26.95120 | -82.03205 | 27620 ft | 485 kts | 136° |
| 2026-05-03 21:54 | 26.92869 | -82.00429 | 27333 ft | 479 kts | 141° |
| 2026-05-03 21:55 | 26.90572 | -81.97731 | 27103 ft | 479 kts | 141° |
| 2026-05-03 21:55 | 26.88275 | -81.95023 | 26855 ft | 477 kts | 140° |
| 2026-05-03 21:55 | 26.85995 | -81.92327 | 26606 ft | 476 kts | 140° |
| 2026-05-03 21:55 | 26.83732 | -81.89647 | 26365 ft | 474 kts | 140° |
| 2026-05-03 21:56 | 26.81465 | -81.86963 | 26127 ft | 472 kts | 140° |
| 2026-05-03 21:56 | 26.79208 | -81.84298 | 25897 ft | 470 kts | 140° |
| 2026-05-03 21:56 | 26.76955 | -81.81647 | 26048 ft | 471 kts | 141° |
| 2026-05-03 21:56 | 26.74721 | -81.79035 | 25840 ft | 470 kts | 141° |
| 2026-05-03 21:57 | 26.72433 | -81.76372 | 25304 ft | 467 kts | 141° |
| 2026-05-03 21:57 | 26.70217 | -81.73796 | 24779 ft | 464 kts | 141° |
| 2026-05-03 21:57 | 26.67983 | -81.71196 | 24245 ft | 460 kts | 141° |
| 2026-05-03 21:57 | 26.65775 | -81.68629 | 23718 ft | 456 kts | 141° |
| 2026-05-03 21:58 | 26.63595 | -81.66089 | 23144 ft | 453 kts | 139° |
| 2026-05-03 21:58 | 26.61626 | -81.63329 | 22596 ft | 454 kts | 133° |
| 2026-05-03 21:58 | 26.59736 | -81.60512 | 22091 ft | 449 kts | 133° |
| 2026-05-03 21:58 | 26.57867 | -81.57728 | 21565 ft | 446 kts | 133° |
| 2026-05-03 21:59 | 26.56022 | -81.54984 | 21060 ft | 442 kts | 133° |
| 2026-05-03 21:59 | 26.54169 | -81.52232 | 20546 ft | 439 kts | 133° |
| 2026-05-03 21:59 | 26.52340 | -81.49523 | 20048 ft | 437 kts | 133° |
| 2026-05-03 21:59 | 26.50530 | -81.46848 | 19548 ft | 436 kts | 133° |
| 2026-05-03 22:00 | 26.48709 | -81.44148 | 19052 ft | 435 kts | 132° |
| 2026-05-03 22:00 | 26.46885 | -81.41442 | 18514 ft | 434 kts | 132° |
| 2026-05-03 22:00 | 26.45082 | -81.38765 | 18171 ft | 426 kts | 132° |
| 2026-05-03 22:00 | 26.43309 | -81.36135 | 17753 ft | 420 kts | 132° |
| 2026-05-03 22:01 | 26.41560 | -81.33546 | 17260 ft | 416 kts | 132° |
| 2026-05-03 22:01 | 26.39791 | -81.31004 | 16750 ft | 411 kts | 134° |
| 2026-05-03 22:01 | 26.38014 | -81.28577 | 16043 ft | 403 kts | 135° |
| 2026-05-03 22:01 | 26.36201 | -81.26192 | 15593 ft | 403 kts | 135° |
| 2026-05-03 22:02 | 26.34378 | -81.23821 | 15128 ft | 401 kts | 135° |
| 2026-05-03 22:02 | 26.32567 | -81.21460 | 14665 ft | 398 kts | 135° |
| 2026-05-03 22:02 | 26.30785 | -81.19118 | 14206 ft | 395 kts | 135° |
| 2026-05-03 22:02 | 26.29024 | -81.16784 | 13724 ft | 393 kts | 134° |
| 2026-05-03 22:03 | 26.27273 | -81.14458 | 13269 ft | 390 kts | 134° |
| 2026-05-03 22:03 | 26.25533 | -81.12155 | 12810 ft | 387 kts | 134° |
| 2026-05-03 22:03 | 26.23810 | -81.09882 | 12401 ft | 381 kts | 134° |
| 2026-05-03 22:03 | 26.22129 | -81.07667 | 12127 ft | 364 kts | 134° |
| 2026-05-03 22:04 | 26.20563 | -81.05600 | 11949 ft | 335 kts | 134° |
| 2026-05-03 22:04 | 26.19101 | -81.03672 | 11476 ft | 320 kts | 135° |
| 2026-05-03 22:04 | 26.17675 | -81.01801 | 10843 ft | 314 kts | 135° |
| 2026-05-03 22:04 | 26.16267 | -80.99962 | 10410 ft | 312 kts | 134° |
| 2026-05-03 22:05 | 26.15048 | -80.97951 | 10057 ft | 315 kts | 118° |
| 2026-05-03 22:05 | 26.14322 | -80.95648 | 9657 ft | 319 kts | 103° |
| 2026-05-03 22:05 | 26.13936 | -80.93249 | 9257 ft | 319 kts | 102° |
| 2026-05-03 22:05 | 26.13545 | -80.90817 | 8852 ft | 317 kts | 102° |
| 2026-05-03 22:06 | 26.13156 | -80.88463 | 8590 ft | 311 kts | 102° |
| 2026-05-03 22:06 | 26.12750 | -80.86042 | 8190 ft | 311 kts | 102° |
| 2026-05-03 22:06 | 26.12362 | -80.83736 | 7957 ft | 305 kts | 102° |
| 2026-05-03 22:06 | 26.11976 | -80.81436 | 7562 ft | 299 kts | 102° |
| 2026-05-03 22:07 | 26.11599 | -80.79186 | 6995 ft | 295 kts | 102° |
| 2026-05-03 22:07 | 26.11219 | -80.76930 | 6837 ft | 296 kts | 102° |
| 2026-05-03 22:07 | 26.10841 | -80.74677 | 6691 ft | 295 kts | 102° |
| 2026-05-03 22:07 | 26.10465 | -80.72440 | 6563 ft | 293 kts | 101° |
| 2026-05-03 22:08 | 26.10087 | -80.70193 | 6439 ft | 300 kts | 102° |
| 2026-05-03 22:08 | 26.09701 | -80.67881 | 6310 ft | 308 kts | 104° |
| 2026-05-03 22:08 | 26.09311 | -80.65548 | 6182 ft | 310 kts | 103° |
| 2026-05-03 22:08 | 26.08919 | -80.63214 | 6031 ft | 303 kts | 102° |
| 2026-05-03 22:09 | 26.08543 | -80.60986 | 5840 ft | 282 kts | 102° |
| 2026-05-03 22:09 | 26.08186 | -80.58890 | 5724 ft | 272 kts | 102° |
| 2026-05-03 22:09 | 26.07840 | -80.56858 | 5596 ft | 262 kts | 102° |
| 2026-05-03 22:10 | 26.07193 | -80.53036 | 5253 ft | 244 kts | 102° |
| 2026-05-03 22:10 | 26.06885 | -80.51178 | 5091 ft | 244 kts | 99° |
| 2026-05-03 22:10 | 26.06741 | -80.49300 | 4955 ft | 245 kts | 93° |
| 2026-05-03 22:10 | 26.06724 | -80.47413 | 4762 ft | 243 kts | 91° |
| 2026-05-03 22:11 | 26.06725 | -80.45556 | 4578 ft | 242 kts | 91° |
| 2026-05-03 22:11 | 26.06720 | -80.43678 | 4417 ft | 241 kts | 91° |
| 2026-05-03 22:11 | 26.06713 | -80.41818 | 4259 ft | 239 kts | 91° |
| 2026-05-03 22:11 | 26.06705 | -80.39959 | 4112 ft | 244 kts | 88° |
| 2026-05-03 22:12 | 26.06701 | -80.38656 | 3921 ft | 252 kts | 90° |
| 2026-05-03 22:12 | 26.06693 | -80.36702 | 3590 ft | 258 kts | 90° |
| 2026-05-03 22:12 | 26.06681 | -80.33991 | 3134 ft | 267 kts | 90° |
| 2026-05-03 22:12 | 26.06674 | -80.32587 | 2886 ft | 266 kts | 90° |
| 2026-05-03 22:13 | 26.06665 | -80.30549 | 2535 ft | 258 kts | 90° |
| 2026-05-03 22:13 | 26.06655 | -80.28652 | 2208 ft | 233 kts | 90° |
| 2026-05-03 22:13 | 26.06647 | -80.26963 | 1931 ft | 210 kts | 90° |
| 2026-05-03 22:13 | 26.06639 | -80.25385 | 1699 ft | 199 kts | 89° |
| 2026-05-03 22:14 | 26.06631 | -80.23866 | 1425 ft | 188 kts | 88° |
| 2026-05-03 22:14 | 26.06624 | -80.22462 | 1180 ft | 176 kts | 88° |
| 2026-05-03 22:14 | 26.06617 | -80.21161 | 970 ft | 164 kts | 88° |
| 2026-05-03 22:14 | 26.06610 | -80.19940 | 764 ft | 157 kts | 89° |
| 2026-05-03 22:15 | 26.06601 | -80.18735 | 566 ft | 155 kts | 88° |
| 2026-05-03 22:15 | 26.06575 | -80.17533 | 358 ft | 155 kts | 89° |
| 2026-05-03 22:15 | 26.06573 | -80.16332 | 170 ft | 156 kts | 88° |
| 2026-05-03 22:15 | 26.06574 | -80.15153 | 29 ft | 141 kts | 88° |
| 2026-05-03 22:16 | 26.06577 | -80.14299 | 17 ft | 75 kts | 90° |
| 2026-05-03 22:16 | 26.06587 | -80.13917 | 24 ft | 39 kts | 80° |
| 2026-05-03 22:16 | 26.06669 | -80.13763 | 29 ft | 13 kts | 45° |
| 2026-05-03 22:16 | 26.06714 | -80.13742 | 28 ft | 5 kts | 352° |
| 2026-05-03 22:17 | 26.06729 | -80.13757 | 28 ft | 0 kts | 300° |
| 2026-05-03 22:17 | 26.06730 | -80.13759 | 26 ft | 0 kts | 298° |
| 2026-05-03 22:17 | 26.06731 | -80.13764 | 26 ft | 2 kts | 294° |
| 2026-05-03 22:18 | 26.06741 | -80.13812 | 26 ft | 11 kts | 276° |
| 2026-05-03 22:18 | 26.06743 | -80.13904 | 28 ft | 12 kts | 268° |
| 2026-05-03 22:18 | 26.06727 | -80.14014 | 24 ft | 21 kts | 256° |
| 2026-05-03 22:18 | 26.06692 | -80.14187 | 19 ft | 24 kts | 266° |
| 2026-05-03 22:19 | 26.06688 | -80.14377 | 18 ft | 24 kts | 272° |
| 2026-05-03 22:19 | 26.06687 | -80.14569 | 17 ft | 25 kts | 269° |
| 2026-05-03 22:19 | 26.06689 | -80.14757 | 19 ft | 21 kts | 272° |
| 2026-05-03 22:19 | 26.06698 | -80.14867 | 21 ft | 13 kts | 280° |
| 2026-05-03 22:20 | 26.06745 | -80.14926 | 22 ft | 0 kts | 6° |
| 2026-05-03 22:20 | 26.06746 | -80.14926 | 22 ft | 0 kts | 9° |
| 2026-05-03 22:20 | 26.06751 | -80.14920 | 22 ft | 4 kts | 43° |
| 2026-05-03 22:20 | 26.06766 | -80.14873 | 22 ft | 8 kts | 83° |
| 2026-05-03 22:21 | 26.06767 | -80.14803 | 21 ft | 11 kts | 90° |
| 2026-05-03 22:21 | 26.06768 | -80.14707 | 18 ft | 14 kts | 88° |
| 2026-05-03 22:21 | 26.06780 | -80.14601 | 16 ft | 12 kts | 68° |
| 2026-05-03 22:21 | 26.06812 | -80.14517 | 16 ft | 12 kts | 79° |
| 2026-05-03 22:22 | 26.06819 | -80.14434 | 18 ft | 10 kts | 88° |
| 2026-05-03 22:22 | 26.06820 | -80.14361 | 18 ft | 9 kts | 88° |
| 2026-05-03 22:22 | 26.06821 | -80.14345 | 18 ft | 0 kts | 88° |
| 2026-05-03 22:22 | 26.06821 | -80.14341 | 18 ft | 2 kts | 88° |
| 2026-05-03 22:23 | 26.06821 | -80.14334 | 18 ft | 1 kts | 88° |
| 2026-05-03 22:23 | 26.06822 | -80.14323 | 18 ft | 0 kts | 88° |
| 2026-05-03 22:23 | 26.06822 | -80.14314 | 18 ft | 2 kts | 85° |
| 2026-05-03 22:23 | 26.06824 | -80.14307 | 18 ft | 0 kts | 71° |
| 2026-05-03 22:24 | 26.06827 | -80.14305 | 18 ft | 1 kts | 50° |
| 2026-05-03 22:24 | 26.06835 | -80.14300 | 18 ft | 2 kts | 25° |
| 2026-05-03 22:24 | 26.06854 | -80.14298 | 18 ft | 3 kts | 2° |
| 2026-05-03 22:24 | 26.06879 | -80.14297 | 18 ft | 1 kts | 1° |